createdAt,value
2018-03-04T00:01:10.953Z,245.80
2018-03-04T00:03:40.080Z,263.63
2018-03-04T00:06:09.178Z,260.37
2018-03-04T00:08:38.277Z,235.87
2018-03-04T00:11:07.384Z,222.63
2018-03-04T00:13:36.480Z,231.37
2018-03-04T00:16:05.616Z,241.70
2018-03-04T00:18:34.735Z,251.53
2018-03-04T00:21:03.840Z,276.77
2018-03-04T00:23:33.732Z,243.03
2018-03-04T00:26:03.781Z,263.43
2018-03-04T00:28:32.912Z,276.87
2018-03-04T00:31:02.022Z,273.60
2018-03-04T00:33:31.904Z,266.30
2018-03-04T00:36:00.988Z,274.53
2018-03-04T00:38:30.108Z,282.23
2018-03-04T00:40:59.197Z,257.10
2018-03-04T00:43:28.316Z,272.83
2018-03-04T00:45:57.423Z,259.10
2018-03-04T00:48:26.518Z,279.10
2018-03-04T00:50:56.382Z,252.50
2018-03-04T00:53:25.556Z,283.90
2018-03-04T00:55:54.605Z,232.50
2018-03-04T00:58:23.739Z,247.33
2018-03-04T01:00:53.585Z,255.60
2018-03-04T01:03:22.681Z,268.20
2018-03-04T01:05:51.795Z,267.80
2018-03-04T01:08:20.887Z,250.53
2018-03-04T01:10:50.028Z,263.93
2018-03-04T01:13:19.878Z,257.83
2018-03-04T01:15:49.235Z,262.67
2018-03-04T01:18:19.100Z,248.87
2018-03-04T01:20:48.188Z,243.60
2018-03-04T01:23:17.310Z,274.27
2018-03-04T01:25:46.417Z,263.03
2018-03-04T01:28:15.534Z,241.67
2018-03-04T01:30:45.400Z,260.90
2018-03-04T01:33:15.300Z,267.30
2018-03-04T01:35:44.395Z,255.87
2018-03-04T01:38:13.488Z,273.63
2018-03-04T01:40:42.602Z,255.93
2018-03-04T01:43:11.688Z,259.47
2018-03-04T01:45:40.785Z,268.80
2018-03-04T01:48:09.921Z,253.73
2018-03-04T01:50:39.021Z,260.40
2018-03-04T01:53:08.898Z,252.83
2018-03-04T01:55:37.996Z,248.60
2018-03-04T01:58:07.107Z,253.67
2018-03-04T02:00:36.192Z,257.43
2018-03-04T02:03:05.313Z,239.13
2018-03-04T02:05:34.415Z,252.80
2018-03-04T02:08:03.497Z,256.90
2018-03-04T02:10:32.610Z,227.63
2018-03-04T02:13:01.702Z,234.13
2018-03-04T02:15:30.818Z,248.37
2018-03-04T02:18:00.674Z,241.03
2018-03-04T02:20:29.812Z,275.93
2018-03-04T02:22:58.874Z,243.03
2018-03-04T02:25:27.964Z,285.83
2018-03-04T02:27:57.066Z,265.50
2018-03-04T02:30:26.952Z,273.50
2018-03-04T02:32:56.049Z,265.90
2018-03-04T02:35:25.138Z,267.53
2018-03-04T02:37:54.234Z,255.13
2018-03-04T02:40:23.343Z,276.60
2018-03-04T02:42:52.451Z,265.10
2018-03-04T02:45:21.565Z,274.90
2018-03-04T02:47:51.411Z,238.40
2018-03-04T02:50:21.293Z,230.83
2018-03-04T02:52:50.370Z,251.23
2018-03-04T02:55:19.475Z,270.00
2018-03-04T02:57:48.631Z,263.57
2018-03-04T03:00:17.719Z,255.40
2018-03-04T03:02:47.578Z,242.20
2018-03-04T03:05:16.724Z,264.53
2018-03-04T03:07:46.571Z,258.60
2018-03-04T03:10:15.662Z,260.93
2018-03-04T03:12:44.770Z,263.83
2018-03-04T03:15:13.860Z,244.50
2018-03-04T03:17:42.961Z,249.30
2018-03-04T03:20:12.051Z,247.53
2018-03-04T03:22:41.182Z,250.27
2018-03-04T03:25:10.273Z,261.20
2018-03-04T03:27:39.405Z,256.67
2018-03-04T03:30:09.282Z,263.27
2018-03-04T03:32:38.376Z,231.17
2018-03-04T03:35:07.463Z,249.90
2018-03-04T03:37:36.577Z,260.23
2018-03-04T03:40:06.430Z,236.90
2018-03-04T03:42:36.318Z,242.67
2018-03-04T03:45:05.421Z,254.23
2018-03-04T03:47:34.507Z,250.13
2018-03-04T03:50:03.618Z,268.63
2018-03-04T03:52:34.147Z,271.47
2018-03-04T03:55:04.036Z,247.13
2018-03-04T03:57:33.111Z,255.23
2018-03-04T04:00:02.996Z,252.83
2018-03-04T04:02:32.859Z,253.60
2018-03-04T04:05:03.283Z,234.70
2018-03-04T04:07:32.418Z,235.40
2018-03-04T04:10:02.279Z,241.63
2018-03-04T04:12:31.386Z,225.27
2018-03-04T04:15:00.476Z,257.63
2018-03-04T04:17:29.608Z,259.80
2018-03-04T04:19:59.451Z,230.17
2018-03-04T04:22:28.543Z,270.97
2018-03-04T04:24:57.654Z,238.67
2018-03-04T04:27:26.757Z,254.93
2018-03-04T04:29:55.853Z,239.00
2018-03-04T04:32:25.725Z,275.77
2018-03-04T04:34:55.602Z,349.20
2018-03-04T04:37:24.701Z,291.17
2018-03-04T04:39:53.806Z,285.93
2018-03-04T04:42:22.893Z,248.57
2018-03-04T04:44:52.010Z,267.30
2018-03-04T04:47:21.101Z,266.83
2018-03-04T04:49:50.207Z,258.50
2018-03-04T04:52:20.063Z,263.73
2018-03-04T04:54:49.178Z,263.37
2018-03-04T04:57:18.293Z,258.50
2018-03-04T04:59:47.405Z,257.23
2018-03-04T05:02:17.268Z,251.77
2018-03-04T05:04:46.425Z,259.10
2018-03-04T05:07:15.513Z,263.43
2018-03-04T05:09:44.614Z,248.40
2018-03-04T05:12:13.741Z,255.03
2018-03-04T05:14:42.833Z,309.47
2018-03-04T05:17:11.933Z,243.17
2018-03-04T05:19:41.016Z,323.03
2018-03-04T05:22:10.132Z,318.57
2018-03-04T05:24:39.214Z,245.13
2018-03-04T05:27:08.322Z,494.67
2018-03-04T05:29:37.455Z,919.77
2018-03-04T05:32:06.540Z,548.83
2018-03-04T05:34:35.638Z,769.30
2018-03-04T05:37:04.735Z,724.13
2018-03-04T05:39:33.858Z,249.37
2018-03-04T05:42:02.960Z,293.30
2018-03-04T05:44:32.054Z,224.23
2018-03-04T05:47:01.158Z,321.80
2018-03-04T05:49:31.014Z,268.97
2018-03-04T05:52:00.106Z,238.33
2018-03-04T05:54:29.206Z,242.50
2018-03-04T05:56:58.302Z,260.37
2018-03-04T05:59:27.460Z,234.70
2018-03-04T06:01:56.543Z,263.07
2018-03-04T06:04:25.646Z,260.37
2018-03-04T06:06:55.505Z,230.23
2018-03-04T06:09:24.616Z,371.27
2018-03-04T06:11:53.729Z,278.00
2018-03-04T06:14:22.848Z,256.67
2018-03-04T06:16:52.719Z,266.07
2018-03-04T06:19:21.834Z,265.40
2018-03-04T06:21:50.935Z,299.97
2018-03-04T06:24:20.046Z,461.43
2018-03-04T06:26:49.917Z,353.60
2018-03-04T06:29:19.022Z,447.03
2018-03-04T06:31:48.893Z,907.53
2018-03-04T06:34:17.982Z,321.27
2018-03-04T06:36:47.102Z,347.27
2018-03-04T06:39:16.195Z,283.43
2018-03-04T06:41:45.325Z,292.87
2018-03-04T06:44:14.402Z,294.93
2018-03-04T06:46:44.286Z,343.93
2018-03-04T06:49:14.166Z,286.47
2018-03-04T06:51:43.266Z,289.37
2018-03-04T06:54:12.354Z,211.63
2018-03-04T06:56:41.476Z,707.20
2018-03-04T06:59:11.355Z,813.07
2018-03-04T07:01:40.463Z,762.23
2018-03-04T07:04:09.575Z,618.90
2018-03-04T07:06:38.665Z,1001.17
2018-03-04T07:09:07.789Z,659.17
2018-03-04T07:11:37.643Z,281.37
2018-03-04T07:14:06.748Z,346.23
2018-03-04T07:16:35.861Z,383.77
2018-03-04T07:19:04.982Z,365.17
2018-03-04T07:21:34.842Z,343.77
2018-03-04T07:24:03.951Z,333.37
2018-03-04T07:26:33.044Z,366.67
2018-03-04T07:29:03.785Z,323.40
2018-03-04T07:31:32.895Z,283.40
2018-03-04T07:34:02.029Z,354.93
2018-03-04T07:36:31.892Z,317.27
2018-03-04T07:39:00.987Z,447.53
2018-03-04T07:41:30.118Z,379.50
2018-03-04T07:43:59.958Z,367.13
2018-03-04T07:46:29.081Z,239.90
2018-03-04T07:48:58.944Z,320.90
2018-03-04T07:51:28.840Z,288.83
2018-03-04T07:53:57.933Z,554.17
2018-03-04T07:56:27.056Z,337.97
2018-03-04T07:58:56.943Z,421.10
2018-03-04T08:01:26.073Z,168.87
2018-03-04T08:03:55.191Z,442.90
2018-03-04T08:06:24.303Z,436.60
2018-03-04T08:08:53.410Z,155.97
2018-03-04T08:11:22.540Z,204.60
2018-03-04T08:13:52.411Z,221.03
2018-03-04T08:16:21.522Z,292.47
2018-03-04T08:18:50.630Z,354.30
2018-03-04T08:21:19.729Z,182.50
2018-03-04T08:23:48.905Z,513.00
2018-03-04T08:26:35.700Z,345.03
2018-03-04T08:29:05.014Z,252.93
2018-03-04T08:31:34.093Z,329.07
2018-03-04T08:34:03.234Z,299.50
2018-03-04T08:36:32.338Z,300.63
2018-03-04T08:39:02.227Z,151.87
2018-03-04T08:41:31.319Z,179.87
2018-03-04T08:44:00.430Z,173.47
2018-03-04T08:46:29.564Z,157.47
2018-03-04T08:48:59.437Z,169.80
2018-03-04T08:51:28.541Z,191.53
2018-03-04T08:53:57.689Z,204.43
2018-03-04T08:56:27.530Z,162.20
2018-03-04T08:58:56.655Z,172.03
2018-03-04T09:01:26.540Z,168.90
2018-03-04T09:03:55.654Z,172.53
2018-03-04T09:06:24.779Z,147.67
2018-03-04T09:08:54.662Z,158.07
2018-03-04T09:11:23.759Z,150.63
2018-03-04T09:13:52.880Z,157.90
2018-03-04T09:16:22.753Z,149.47
2018-03-04T09:18:51.865Z,161.80
2018-03-04T09:21:20.990Z,152.73
2018-03-04T09:23:50.871Z,156.47
2018-03-04T09:26:20.031Z,153.77
2018-03-04T09:28:49.128Z,157.83
2018-03-04T09:31:18.258Z,167.83
2018-03-04T09:33:48.148Z,146.97
2018-03-04T09:36:17.246Z,124.87
2018-03-04T09:38:46.347Z,135.37
2018-03-04T09:41:15.476Z,148.73
2018-03-04T09:43:44.563Z,128.33
2018-03-04T09:46:13.685Z,132.03
2018-03-04T09:48:43.563Z,131.50
2018-03-04T09:51:12.670Z,139.90
2018-03-04T09:53:41.793Z,136.47
2018-03-04T09:56:11.695Z,127.27
2018-03-04T09:58:40.794Z,131.07
2018-03-04T10:01:09.898Z,129.70
2018-03-04T10:03:39.777Z,137.53
2018-03-04T10:06:08.891Z,131.20
2018-03-04T10:08:38.051Z,124.37
2018-03-04T10:11:07.145Z,116.43
2018-03-04T10:13:37.111Z,112.00
2018-03-04T10:16:06.974Z,102.53
2018-03-04T10:18:36.106Z,96.87
2018-03-04T10:21:05.969Z,102.73
2018-03-04T10:23:35.093Z,90.33
2018-03-04T10:26:04.962Z,80.63
2018-03-04T10:28:34.887Z,68.93
2018-03-04T10:31:03.998Z,59.80
2018-03-04T10:33:33.103Z,60.37
2018-03-04T10:36:02.220Z,68.30
2018-03-04T10:38:31.320Z,58.53
2018-03-04T10:41:00.466Z,49.10
2018-03-04T10:43:29.554Z,51.20
2018-03-04T10:45:59.430Z,52.67
2018-03-04T10:48:28.558Z,52.90
2018-03-04T10:50:58.428Z,50.60
2018-03-04T10:53:27.550Z,42.97
2018-03-04T10:55:56.681Z,48.00
2018-03-04T10:58:26.564Z,44.70
2018-03-04T11:01:10.134Z,56.00
2018-03-04T11:03:39.243Z,38.97
2018-03-04T11:06:08.351Z,38.20
2018-03-04T11:08:37.470Z,34.80
2018-03-04T11:11:06.618Z,34.30
2018-03-04T11:13:35.739Z,30.83
2018-03-04T11:16:04.963Z,31.80
2018-03-04T11:18:34.078Z,33.97
2018-03-04T11:21:03.184Z,34.93
2018-03-04T11:23:37.012Z,29.87
2018-03-04T11:26:06.108Z,29.20
2018-03-04T11:28:35.257Z,36.83
2018-03-04T11:31:04.406Z,32.23
2018-03-04T11:33:33.533Z,25.20
2018-03-04T11:36:02.673Z,31.63
2018-03-04T11:38:32.559Z,30.67
2018-03-04T11:41:02.627Z,29.40
2018-03-04T11:43:31.731Z,28.63
2018-03-04T11:46:00.833Z,16.33
2018-03-04T11:48:29.984Z,14.47
2018-03-04T11:50:59.097Z,16.77
2018-03-04T11:53:28.964Z,12.33
2018-03-04T11:55:58.200Z,14.20
2018-03-04T11:58:27.319Z,12.40
2018-03-04T12:00:56.422Z,9.87
2018-03-04T12:03:25.554Z,14.40
2018-03-04T12:05:54.712Z,12.43
2018-03-04T12:08:24.609Z,13.23
2018-03-04T12:10:53.720Z,14.80
2018-03-04T12:13:22.849Z,12.60
2018-03-04T12:15:51.964Z,16.53
2018-03-04T12:18:21.081Z,14.23
2018-03-04T12:20:50.185Z,12.50
2018-03-04T12:23:20.091Z,8.23
2018-03-04T12:25:49.219Z,12.13
2018-03-04T12:28:18.350Z,6.23
2018-03-04T12:30:47.460Z,8.10
2018-03-04T12:33:16.587Z,7.83
2018-03-04T12:35:45.699Z,7.00
2018-03-04T12:38:14.846Z,6.53
2018-03-04T12:40:43.986Z,6.70
2018-03-04T12:43:13.889Z,4.70
2018-03-04T12:45:43.018Z,5.90
2018-03-04T12:48:12.103Z,9.30
2018-03-04T12:50:41.225Z,7.40
2018-03-04T12:53:10.337Z,6.60
2018-03-04T12:55:39.453Z,7.83
2018-03-04T12:58:08.622Z,5.60
2018-03-04T13:00:37.765Z,7.73
2018-03-04T13:03:07.628Z,6.57
2018-03-04T13:05:36.741Z,6.93
2018-03-04T13:08:06.673Z,6.43
2018-03-04T13:10:36.598Z,5.70
2018-03-04T13:13:05.708Z,7.20
2018-03-04T13:15:35.602Z,3.77
2018-03-04T13:18:05.419Z,4.80
2018-03-04T13:20:34.507Z,5.10
2018-03-04T13:23:03.628Z,8.00
2018-03-04T13:25:33.521Z,7.73
2018-03-04T13:28:02.643Z,5.20
2018-03-04T13:30:31.793Z,5.87
2018-03-04T13:33:00.915Z,5.80
2018-03-04T13:35:30.034Z,5.07
2018-03-04T13:37:59.902Z,10.60
2018-03-04T13:40:29.043Z,9.00
2018-03-04T13:42:58.184Z,11.93
2018-03-04T13:45:28.250Z,5.13
2018-03-04T13:47:58.111Z,6.20
2018-03-04T13:50:27.250Z,7.20
2018-03-04T13:52:56.348Z,4.63
2018-03-04T13:55:26.266Z,5.90
2018-03-04T13:57:55.385Z,6.83
2018-03-04T14:00:25.260Z,5.63
2018-03-04T14:02:54.361Z,9.77
2018-03-04T14:05:23.470Z,7.53
2018-03-04T14:07:52.578Z,7.60
2018-03-04T14:10:22.458Z,4.93
2018-03-04T14:12:51.581Z,3.70
2018-03-04T14:15:21.459Z,4.20
2018-03-04T14:17:50.579Z,5.57
2018-03-04T14:20:19.726Z,10.37
2018-03-04T14:22:48.818Z,5.40
2018-03-04T14:25:17.973Z,4.47
2018-03-04T14:27:47.054Z,6.87
2018-03-04T14:30:16.182Z,5.50
2018-03-04T14:32:46.057Z,7.33
2018-03-04T14:35:15.145Z,5.27
2018-03-04T14:37:44.324Z,7.40
2018-03-04T14:40:14.176Z,5.33
2018-03-04T14:42:43.311Z,4.50
2018-03-04T14:45:13.158Z,5.50
2018-03-04T14:47:42.306Z,4.70
2018-03-04T14:50:12.217Z,5.30
2018-03-04T14:52:48.535Z,3.73
2018-03-04T14:55:17.645Z,5.57
2018-03-04T14:57:46.760Z,5.60
2018-03-04T15:00:15.857Z,5.10
2018-03-04T15:02:45.764Z,3.73
2018-03-04T15:05:14.914Z,4.90
2018-03-04T15:07:44.029Z,8.70
2018-03-04T15:10:13.977Z,6.00
2018-03-04T15:12:43.099Z,3.90
2018-03-04T15:15:12.251Z,6.33
2018-03-04T15:17:41.378Z,4.03
2018-03-04T15:20:10.470Z,4.80
2018-03-04T15:22:40.373Z,6.27
2018-03-04T15:25:09.505Z,6.07
2018-03-04T15:27:39.396Z,8.57
2018-03-04T15:30:10.013Z,8.33
2018-03-04T15:32:39.150Z,6.20
2018-03-04T15:35:08.276Z,7.00
2018-03-04T15:37:37.461Z,7.13
2018-03-04T15:40:06.537Z,9.30
2018-03-04T15:42:36.417Z,8.53
2018-03-04T15:45:05.572Z,5.57
2018-03-04T15:47:34.664Z,5.87
2018-03-04T15:50:03.792Z,10.00
2018-03-04T15:52:33.649Z,6.97
2018-03-04T15:55:02.783Z,5.57
2018-03-04T15:57:31.917Z,8.97
2018-03-04T16:00:01.019Z,5.50
2018-03-04T16:02:30.165Z,5.30
2018-03-04T16:04:59.271Z,4.07
2018-03-04T16:07:28.400Z,5.20
2018-03-04T16:09:57.520Z,5.10
2018-03-04T16:12:27.417Z,4.43
2018-03-04T16:14:56.522Z,7.13
2018-03-04T16:17:25.639Z,9.00
2018-03-04T16:19:55.546Z,8.00
2018-03-04T16:22:25.450Z,9.00
2018-03-04T16:24:54.552Z,9.93
2018-03-04T16:27:24.488Z,3.63
2018-03-04T16:29:53.640Z,8.90
2018-03-04T16:32:22.795Z,5.63
2018-03-04T16:34:51.908Z,8.30
2018-03-04T16:37:21.017Z,6.73
2018-03-04T16:39:50.137Z,7.97
2018-03-04T16:42:20.056Z,6.20
2018-03-04T16:44:49.202Z,10.20
2018-03-04T16:47:18.321Z,7.20
2018-03-04T16:49:47.445Z,11.70
2018-03-04T16:52:17.343Z,7.27
2018-03-04T16:54:46.469Z,7.00
2018-03-04T16:57:16.362Z,4.10
2018-03-04T16:59:47.010Z,5.27
2018-03-04T17:02:16.884Z,5.07
2018-03-04T17:04:46.008Z,6.70
2018-03-04T17:07:15.156Z,16.80
2018-03-04T17:09:44.275Z,6.77
2018-03-04T17:12:13.379Z,7.60
2018-03-04T17:14:42.519Z,12.87
2018-03-04T17:17:12.423Z,4.60
2018-03-04T17:19:42.327Z,12.63
2018-03-04T17:22:12.239Z,9.67
2018-03-04T17:24:41.347Z,6.40
2018-03-04T17:27:11.227Z,7.83
2018-03-04T17:29:40.346Z,8.83
2018-03-04T17:32:09.475Z,5.70
2018-03-04T17:34:38.588Z,9.80
2018-03-04T17:37:07.733Z,9.73
2018-03-04T17:39:36.836Z,8.93
2018-03-04T17:42:05.957Z,7.00
2018-03-04T17:44:35.820Z,6.40
2018-03-04T17:47:04.942Z,6.57
2018-03-04T17:49:34.076Z,12.13
2018-03-04T17:52:03.183Z,9.13
2018-03-04T17:54:32.309Z,14.60
2018-03-04T17:57:01.415Z,11.40
2018-03-04T17:59:30.560Z,12.23
2018-03-04T18:01:59.700Z,15.73
2018-03-04T18:04:28.839Z,14.37
2018-03-04T18:06:57.981Z,10.33
2018-03-04T18:09:27.148Z,10.30
2018-03-04T18:11:56.258Z,13.73
2018-03-04T18:14:25.408Z,8.17
2018-03-04T18:16:54.499Z,10.70
2018-03-04T18:19:24.406Z,9.17
2018-03-04T18:21:53.525Z,9.37
2018-03-04T18:24:23.413Z,10.00
2018-03-04T18:26:52.555Z,14.20
2018-03-04T18:29:21.687Z,14.30
2018-03-04T18:31:50.793Z,12.43
2018-03-04T18:34:20.729Z,13.50
2018-03-04T18:36:49.857Z,15.73
2018-03-04T18:39:18.976Z,10.27
2018-03-04T18:41:48.067Z,13.87
2018-03-04T18:44:17.225Z,11.37
2018-03-04T18:46:46.300Z,10.03
2018-03-04T18:49:15.403Z,13.30
2018-03-04T18:51:44.523Z,12.70
2018-03-04T18:54:14.385Z,14.70
2018-03-04T18:56:43.544Z,11.73
2018-03-04T18:59:13.423Z,9.03
2018-03-04T19:01:43.315Z,12.80
2018-03-04T19:04:12.426Z,11.77
2018-03-04T19:06:41.552Z,14.90
2018-03-04T19:09:11.425Z,10.17
2018-03-04T19:11:41.315Z,14.83
2018-03-04T19:14:10.419Z,17.37
2018-03-04T19:16:39.547Z,15.53
2018-03-04T19:19:08.676Z,15.77
2018-03-04T19:21:38.573Z,14.20
2018-03-04T19:24:07.696Z,15.40
2018-03-04T19:26:37.539Z,13.83
2018-03-04T19:29:06.688Z,12.57
2018-03-04T19:31:36.577Z,14.20
2018-03-04T19:34:05.744Z,32.90
2018-03-04T19:36:34.840Z,16.10
2018-03-04T19:39:04.000Z,13.17
2018-03-04T19:41:33.880Z,13.13
2018-03-04T19:44:03.033Z,15.77
2018-03-04T19:46:32.195Z,12.87
2018-03-04T19:49:01.309Z,11.90
2018-03-04T19:51:31.207Z,15.47
2018-03-04T19:54:00.328Z,16.13
2018-03-04T19:56:29.457Z,22.37
2018-03-04T19:58:58.575Z,16.60
2018-03-04T20:01:27.691Z,25.83
2018-03-04T20:03:56.810Z,30.50
2018-03-04T20:06:26.706Z,47.27
2018-03-04T20:08:55.842Z,40.50
2018-03-04T20:11:24.995Z,50.80
2018-03-04T20:13:54.076Z,54.80
2018-03-04T20:16:24.707Z,50.83
2018-03-04T20:18:53.820Z,54.57
2018-03-04T20:21:23.015Z,63.20
2018-03-04T20:23:52.137Z,54.43
2018-03-04T20:26:22.069Z,54.50
2018-03-04T20:28:51.947Z,53.03
2018-03-04T20:31:21.847Z,48.03
2018-03-04T20:33:50.967Z,52.80
2018-03-04T20:36:20.890Z,59.03
2018-03-04T20:38:50.766Z,68.93
2018-03-04T20:41:19.902Z,67.30
2018-03-04T20:43:49.776Z,58.80
2018-03-04T20:46:18.934Z,58.97
2018-03-04T20:48:48.027Z,61.90
2018-03-04T20:51:17.153Z,67.33
2018-03-04T20:53:46.299Z,69.57
2018-03-04T20:56:16.213Z,62.23
2018-03-04T20:58:46.396Z,71.60
2018-03-04T21:01:16.314Z,67.87
2018-03-04T21:03:45.455Z,63.33
2018-03-04T21:06:15.327Z,64.87
2018-03-04T21:08:44.423Z,66.10
2018-03-04T21:11:13.566Z,65.40
2018-03-04T21:13:42.748Z,66.23
2018-03-04T21:16:12.670Z,67.77
2018-03-04T21:18:42.572Z,63.87
2018-03-04T21:21:12.455Z,59.80
2018-03-04T21:23:41.560Z,70.63
2018-03-04T21:26:10.698Z,71.10
2018-03-04T21:28:39.789Z,69.13
2018-03-04T21:31:08.903Z,68.50
2018-03-04T21:33:38.042Z,69.40
2018-03-04T21:36:07.132Z,68.97
2018-03-04T21:38:36.280Z,72.87
2018-03-04T21:41:05.407Z,72.40
2018-03-04T21:43:34.533Z,70.43
2018-03-04T21:46:03.622Z,70.00
2018-03-04T21:48:32.750Z,70.43
2018-03-04T21:51:02.032Z,74.17
2018-03-04T21:53:31.164Z,70.03
2018-03-04T21:56:01.019Z,82.90
2018-03-04T21:58:30.866Z,77.13
2018-03-04T22:01:00.757Z,73.53
2018-03-04T22:03:29.862Z,81.60
2018-03-04T22:05:58.974Z,85.40
2018-03-04T22:08:28.837Z,81.73
2018-03-04T22:10:57.953Z,88.73
2018-03-04T22:13:27.047Z,90.90
2018-03-04T22:15:56.158Z,83.13
2018-03-04T22:18:25.255Z,88.60
2018-03-04T22:20:55.911Z,78.97
2018-03-04T22:23:24.993Z,81.53
2018-03-04T22:25:54.869Z,84.23
2018-03-04T22:28:23.962Z,75.23
2018-03-04T22:30:53.086Z,71.03
2018-03-04T22:33:22.176Z,69.73
2018-03-04T22:35:51.283Z,56.43
2018-03-04T22:38:20.388Z,59.43
2018-03-04T22:40:49.505Z,58.70
2018-03-04T22:43:19.351Z,52.97
2018-03-04T22:45:48.487Z,52.47
2018-03-04T22:48:17.600Z,54.50
2018-03-04T22:50:47.448Z,52.17
2018-03-04T22:53:16.558Z,52.57
2018-03-04T22:55:45.678Z,52.13
2018-03-04T22:58:14.778Z,45.67
2018-03-04T23:00:43.922Z,43.67
2018-03-04T23:03:13.043Z,42.30
2018-03-04T23:05:43.057Z,46.47
2018-03-04T23:08:12.187Z,45.17
2018-03-04T23:10:42.054Z,41.77
2018-03-04T23:13:11.146Z,50.47
2018-03-04T23:15:41.016Z,46.07
2018-03-04T23:18:10.118Z,45.40
2018-03-04T23:20:39.220Z,47.67
2018-03-04T23:23:08.300Z,49.43
2018-03-04T23:25:37.416Z,44.37
2018-03-04T23:28:07.100Z,45.87
2018-03-04T23:30:36.227Z,50.13
2018-03-04T23:33:06.136Z,46.00
2018-03-04T23:35:35.232Z,46.73
2018-03-04T23:38:05.084Z,39.87
2018-03-04T23:40:34.194Z,42.37
2018-03-04T23:43:04.053Z,40.50
2018-03-04T23:45:33.147Z,42.10
2018-03-04T23:48:02.989Z,44.40
2018-03-04T23:50:32.104Z,39.63
2018-03-04T23:53:01.194Z,45.33
2018-03-04T23:55:30.287Z,48.90
2018-03-04T23:57:59.415Z,45.57
